sensor_id;sensor_type;location;lat;lon;timestamp;temperature;humidity
16999;DHT22;10211;49.476;11.010;2023-07-31T00:01:20;16.00;99.90
16999;DHT22;10211;49.476;11.010;2023-07-31T00:03:46;16.00;99.90
16999;DHT22;10211;49.476;11.010;2023-07-31T00:06:13;16.10;99.90
16999;DHT22;10211;49.476;11.010;2023-07-31T00:08:41;16.10;99.90
16999;DHT22;10211;49.476;11.010;2023-07-31T00:11:08;16.10;99.90
16999;DHT22;10211;49.476;11.010;2023-07-31T00:13:35;16.20;99.90
16999;DHT22;10211;49.476;11.010;2023-07-31T00:16:02;16.20;99.90
16999;DHT22;10211;49.476;11.010;2023-07-31T00:18:29;16.20;99.90
16999;DHT22;10211;49.476;11.010;2023-07-31T00:20:56;16.10;99.90
16999;DHT22;10211;49.476;11.010;2023-07-31T00:23:22;16.10;99.90
16999;DHT22;10211;49.476;11.010;2023-07-31T00:25:50;16.20;99.90
16999;DHT22;10211;49.476;11.010;2023-07-31T00:28:17;16.20;99.90
16999;DHT22;10211;49.476;11.010;2023-07-31T00:30:43;16.20;99.90
16999;DHT22;10211;49.476;11.010;2023-07-31T00:33:10;16.20;99.90
16999;DHT22;10211;49.476;11.010;2023-07-31T00:35:37;16.20;99.90
16999;DHT22;10211;49.476;11.010;2023-07-31T00:38:03;16.30;99.90
16999;DHT22;10211;49.476;11.010;2023-07-31T00:40:34;16.30;99.90
16999;DHT22;10211;49.476;11.010;2023-07-31T00:43:03;16.20;99.90
16999;DHT22;10211;49.476;11.010;2023-07-31T00:45:30;16.20;99.90
16999;DHT22;10211;49.476;11.010;2023-07-31T00:47:57;16.20;99.90
16999;DHT22;10211;49.476;11.010;2023-07-31T00:50:24;16.20;99.90
16999;DHT22;10211;49.476;11.010;2023-07-31T00:52:52;16.20;99.90
16999;DHT22;10211;49.476;11.010;2023-07-31T00:55:18;16.20;99.90
16999;DHT22;10211;49.476;11.010;2023-07-31T00:57:45;16.20;99.90
16999;DHT22;10211;49.476;11.010;2023-07-31T01:00:14;16.20;99.90
16999;DHT22;10211;49.476;11.010;2023-07-31T01:02:41;16.30;99.90
16999;DHT22;10211;49.476;11.010;2023-07-31T01:05:08;16.30;99.90
16999;DHT22;10211;49.476;11.010;2023-07-31T01:07:42;16.40;99.90
16999;DHT22;10211;49.476;11.010;2023-07-31T01:10:15;16.40;99.90
16999;DHT22;10211;49.476;11.010;2023-07-31T01:12:43;16.40;99.90
16999;DHT22;10211;49.476;11.010;2023-07-31T01:15:11;16.50;99.90
16999;DHT22;10211;49.476;11.010;2023-07-31T01:17:41;16.50;99.90
16999;DHT22;10211;49.476;11.010;2023-07-31T01:20:12;16.50;99.90
16999;DHT22;10211;49.476;11.010;2023-07-31T01:22:58;16.50;99.90
16999;DHT22;10211;49.476;11.010;2023-07-31T01:25:50;16.60;99.90
16999;DHT22;10211;49.476;11.010;2023-07-31T01:28:20;16.50;99.90
16999;DHT22;10211;49.476;11.010;2023-07-31T01:30:50;16.60;99.90
16999;DHT22;10211;49.476;11.010;2023-07-31T01:33:17;16.60;99.90
16999;DHT22;10211;49.476;11.010;2023-07-31T01:35:45;16.60;99.90
16999;DHT22;10211;49.476;11.010;2023-07-31T01:38:12;16.60;99.90
16999;DHT22;10211;49.476;11.010;2023-07-31T01:40:41;16.60;99.90
16999;DHT22;10211;49.476;11.010;2023-07-31T01:43:10;16.60;99.90
16999;DHT22;10211;49.476;11.010;2023-07-31T01:45:37;16.60;99.90
16999;DHT22;10211;49.476;11.010;2023-07-31T01:48:03;16.60;99.90
16999;DHT22;10211;49.476;11.010;2023-07-31T01:50:30;16.60;99.90
16999;DHT22;10211;49.476;11.010;2023-07-31T01:52:57;16.70;99.90
16999;DHT22;10211;49.476;11.010;2023-07-31T01:55:23;16.70;99.90
16999;DHT22;10211;49.476;11.010;2023-07-31T01:57:51;16.70;99.90
16999;DHT22;10211;49.476;11.010;2023-07-31T02:00:20;16.70;99.90
16999;DHT22;10211;49.476;11.010;2023-07-31T02:02:46;16.70;99.90
16999;DHT22;10211;49.476;11.010;2023-07-31T02:05:13;16.70;99.90
16999;DHT22;10211;49.476;11.010;2023-07-31T02:07:40;16.70;99.90
16999;DHT22;10211;49.476;11.010;2023-07-31T02:10:07;16.70;99.90
16999;DHT22;10211;49.476;11.010;2023-07-31T02:12:34;16.60;99.90
16999;DHT22;10211;49.476;11.010;2023-07-31T02:15:00;16.70;99.90
16999;DHT22;10211;49.476;11.010;2023-07-31T02:17:29;16.70;99.90
16999;DHT22;10211;49.476;11.010;2023-07-31T02:19:55;16.70;99.90
16999;DHT22;10211;49.476;11.010;2023-07-31T02:22:22;16.80;99.90
16999;DHT22;10211;49.476;11.010;2023-07-31T02:24:49;16.70;99.90
16999;DHT22;10211;49.476;11.010;2023-07-31T02:27:15;16.70;99.90
16999;DHT22;10211;49.476;11.010;2023-07-31T02:29:42;16.70;99.90
16999;DHT22;10211;49.476;11.010;2023-07-31T02:32:09;16.70;99.90
16999;DHT22;10211;49.476;11.010;2023-07-31T02:34:37;16.70;99.90
16999;DHT22;10211;49.476;11.010;2023-07-31T02:37:04;16.70;99.90
16999;DHT22;10211;49.476;11.010;2023-07-31T02:39:31;16.70;99.90
16999;DHT22;10211;49.476;11.010;2023-07-31T02:41:58;16.70;99.90
16999;DHT22;10211;49.476;11.010;2023-07-31T02:44:26;16.60;99.90
16999;DHT22;10211;49.476;11.010;2023-07-31T02:46:53;16.60;99.90
16999;DHT22;10211;49.476;11.010;2023-07-31T02:49:20;16.60;99.90
16999;DHT22;10211;49.476;11.010;2023-07-31T02:51:48;16.80;99.90
16999;DHT22;10211;49.476;11.010;2023-07-31T02:54:15;16.60;99.90
16999;DHT22;10211;49.476;11.010;2023-07-31T02:56:41;16.60;99.90
16999;DHT22;10211;49.476;11.010;2023-07-31T02:59:08;16.70;99.90
16999;DHT22;10211;49.476;11.010;2023-07-31T03:01:35;16.60;99.90
16999;DHT22;10211;49.476;11.010;2023-07-31T03:04:01;16.70;99.90
16999;DHT22;10211;49.476;11.010;2023-07-31T03:06:28;16.80;99.90
16999;DHT22;10211;49.476;11.010;2023-07-31T03:08:56;16.70;99.90
16999;DHT22;10211;49.476;11.010;2023-07-31T03:11:22;16.70;99.90
16999;DHT22;10211;49.476;11.010;2023-07-31T03:13:48;16.70;99.90
16999;DHT22;10211;49.476;11.010;2023-07-31T03:16:15;16.60;99.90
16999;DHT22;10211;49.476;11.010;2023-07-31T03:18:42;16.60;99.90
16999;DHT22;10211;49.476;11.010;2023-07-31T03:21:08;16.60;99.90
16999;DHT22;10211;49.476;11.010;2023-07-31T03:23:35;16.70;99.90
16999;DHT22;10211;49.476;11.010;2023-07-31T03:26:07;16.70;99.90
16999;DHT22;10211;49.476;11.010;2023-07-31T03:28:34;16.60;99.90
16999;DHT22;10211;49.476;11.010;2023-07-31T03:31:01;16.60;99.90
16999;DHT22;10211;49.476;11.010;2023-07-31T03:33:27;16.80;99.90
16999;DHT22;10211;49.476;11.010;2023-07-31T03:35:54;16.60;99.90
16999;DHT22;10211;49.476;11.010;2023-07-31T03:38:21;16.60;99.90
16999;DHT22;10211;49.476;11.010;2023-07-31T03:40:48;16.60;99.90
16999;DHT22;10211;49.476;11.010;2023-07-31T03:43:16;16.60;99.90
16999;DHT22;10211;49.476;11.010;2023-07-31T03:45:42;16.60;99.90
16999;DHT22;10211;49.476;11.010;2023-07-31T03:48:09;16.50;99.90
16999;DHT22;10211;49.476;11.010;2023-07-31T03:50:36;16.50;99.90
16999;DHT22;10211;49.476;11.010;2023-07-31T03:53:03;16.40;99.90
16999;DHT22;10211;49.476;11.010;2023-07-31T03:55:29;16.30;99.90
16999;DHT22;10211;49.476;11.010;2023-07-31T03:57:56;16.30;99.90
16999;DHT22;10211;49.476;11.010;2023-07-31T04:00:26;16.30;99.90
16999;DHT22;10211;49.476;11.010;2023-07-31T04:02:53;16.20;99.90
16999;DHT22;10211;49.476;11.010;2023-07-31T04:05:20;16.20;99.90
16999;DHT22;10211;49.476;11.010;2023-07-31T04:07:46;16.20;99.90
16999;DHT22;10211;49.476;11.010;2023-07-31T04:10:13;16.30;99.90
16999;DHT22;10211;49.476;11.010;2023-07-31T04:12:40;16.30;99.90
16999;DHT22;10211;49.476;11.010;2023-07-31T04:15:07;16.30;99.90
16999;DHT22;10211;49.476;11.010;2023-07-31T04:17:35;16.30;99.90
16999;DHT22;10211;49.476;11.010;2023-07-31T04:20:02;16.40;99.90
16999;DHT22;10211;49.476;11.010;2023-07-31T04:22:29;16.40;99.90
16999;DHT22;10211;49.476;11.010;2023-07-31T04:24:56;16.40;99.90
16999;DHT22;10211;49.476;11.010;2023-07-31T04:27:22;16.40;99.90
16999;DHT22;10211;49.476;11.010;2023-07-31T04:29:49;16.40;99.90
16999;DHT22;10211;49.476;11.010;2023-07-31T04:32:16;16.40;99.90
16999;DHT22;10211;49.476;11.010;2023-07-31T04:34:44;16.40;99.90
16999;DHT22;10211;49.476;11.010;2023-07-31T04:37:11;16.40;99.90
16999;DHT22;10211;49.476;11.010;2023-07-31T04:39:39;16.40;99.90
16999;DHT22;10211;49.476;11.010;2023-07-31T04:42:05;16.40;99.90
16999;DHT22;10211;49.476;11.010;2023-07-31T04:44:32;16.40;99.90
16999;DHT22;10211;49.476;11.010;2023-07-31T04:46:59;16.40;99.90
16999;DHT22;10211;49.476;11.010;2023-07-31T04:49:26;16.50;99.90
16999;DHT22;10211;49.476;11.010;2023-07-31T04:51:54;16.60;99.90
16999;DHT22;10211;49.476;11.010;2023-07-31T04:54:20;16.70;99.90
16999;DHT22;10211;49.476;11.010;2023-07-31T04:56:47;16.80;99.90
16999;DHT22;10211;49.476;11.010;2023-07-31T04:59:14;16.90;99.90
16999;DHT22;10211;49.476;11.010;2023-07-31T05:01:40;16.90;99.90
16999;DHT22;10211;49.476;11.010;2023-07-31T05:04:08;16.90;99.90
16999;DHT22;10211;49.476;11.010;2023-07-31T05:06:35;16.90;99.90
16999;DHT22;10211;49.476;11.010;2023-07-31T05:09:03;16.90;99.90
16999;DHT22;10211;49.476;11.010;2023-07-31T05:11:29;17.00;99.90
16999;DHT22;10211;49.476;11.010;2023-07-31T05:13:56;17.00;99.90
16999;DHT22;10211;49.476;11.010;2023-07-31T05:16:23;17.10;99.90
16999;DHT22;10211;49.476;11.010;2023-07-31T05:18:49;17.10;99.90
16999;DHT22;10211;49.476;11.010;2023-07-31T05:21:16;17.30;99.90
16999;DHT22;10211;49.476;11.010;2023-07-31T05:23:43;17.20;99.90
16999;DHT22;10211;49.476;11.010;2023-07-31T05:26:11;17.30;99.90
16999;DHT22;10211;49.476;11.010;2023-07-31T05:28:38;17.40;99.90
16999;DHT22;10211;49.476;11.010;2023-07-31T05:31:05;17.50;99.90
16999;DHT22;10211;49.476;11.010;2023-07-31T05:33:32;17.50;99.90
16999;DHT22;10211;49.476;11.010;2023-07-31T05:35:59;17.60;99.90
16999;DHT22;10211;49.476;11.010;2023-07-31T05:38:26;17.70;99.90
16999;DHT22;10211;49.476;11.010;2023-07-31T05:40:52;17.80;99.90
16999;DHT22;10211;49.476;11.010;2023-07-31T05:43:20;17.80;99.90
16999;DHT22;10211;49.476;11.010;2023-07-31T05:45:47;17.80;99.90
16999;DHT22;10211;49.476;11.010;2023-07-31T05:48:14;17.90;99.90
16999;DHT22;10211;49.476;11.010;2023-07-31T05:50:41;18.00;99.90
16999;DHT22;10211;49.476;11.010;2023-07-31T05:53:07;18.10;99.90
16999;DHT22;10211;49.476;11.010;2023-07-31T05:55:35;18.10;99.90
16999;DHT22;10211;49.476;11.010;2023-07-31T05:58:02;18.20;99.90
16999;DHT22;10211;49.476;11.010;2023-07-31T06:00:30;18.30;99.90
16999;DHT22;10211;49.476;11.010;2023-07-31T06:02:57;18.50;99.90
16999;DHT22;10211;49.476;11.010;2023-07-31T06:05:24;18.70;99.90
16999;DHT22;10211;49.476;11.010;2023-07-31T06:07:51;18.80;99.90
16999;DHT22;10211;49.476;11.010;2023-07-31T06:10:18;18.60;99.90
16999;DHT22;10211;49.476;11.010;2023-07-31T06:12:45;18.70;99.90
16999;DHT22;10211;49.476;11.010;2023-07-31T06:15:11;18.80;99.90
16999;DHT22;10211;49.476;11.010;2023-07-31T06:17:39;18.80;99.90
16999;DHT22;10211;49.476;11.010;2023-07-31T06:20:07;19.10;99.90
16999;DHT22;10211;49.476;11.010;2023-07-31T06:22:34;19.00;99.90
16999;DHT22;10211;49.476;11.010;2023-07-31T06:25:01;19.10;99.90
16999;DHT22;10211;49.476;11.010;2023-07-31T06:27:27;19.20;99.90
16999;DHT22;10211;49.476;11.010;2023-07-31T06:29:54;19.30;99.90
16999;DHT22;10211;49.476;11.010;2023-07-31T06:32:21;19.40;99.90
16999;DHT22;10211;49.476;11.010;2023-07-31T06:34:49;19.60;99.90
16999;DHT22;10211;49.476;11.010;2023-07-31T06:37:17;19.80;99.90
16999;DHT22;10211;49.476;11.010;2023-07-31T06:39:44;19.70;99.90
16999;DHT22;10211;49.476;11.010;2023-07-31T06:42:10;20.00;99.90
16999;DHT22;10211;49.476;11.010;2023-07-31T06:44:37;19.50;99.90
16999;DHT22;10211;49.476;11.010;2023-07-31T06:47:04;19.70;99.90
16999;DHT22;10211;49.476;11.010;2023-07-31T06:49:34;19.70;99.90
16999;DHT22;10211;49.476;11.010;2023-07-31T06:52:02;19.90;99.90
16999;DHT22;10211;49.476;11.010;2023-07-31T06:54:29;19.90;99.90
16999;DHT22;10211;49.476;11.010;2023-07-31T06:56:56;20.20;99.90
16999;DHT22;10211;49.476;11.010;2023-07-31T06:59:22;20.30;99.90
16999;DHT22;10211;49.476;11.010;2023-07-31T07:01:49;20.40;99.90
16999;DHT22;10211;49.476;11.010;2023-07-31T07:04:16;20.30;99.90
16999;DHT22;10211;49.476;11.010;2023-07-31T07:06:42;20.30;99.90
16999;DHT22;10211;49.476;11.010;2023-07-31T07:09:11;20.40;99.90
16999;DHT22;10211;49.476;11.010;2023-07-31T07:11:37;20.60;99.90
16999;DHT22;10211;49.476;11.010;2023-07-31T07:14:04;20.70;99.90
16999;DHT22;10211;49.476;11.010;2023-07-31T07:16:31;20.80;99.90
16999;DHT22;10211;49.476;11.010;2023-07-31T07:18:57;20.80;99.90
16999;DHT22;10211;49.476;11.010;2023-07-31T07:21:24;20.70;99.90
16999;DHT22;10211;49.476;11.010;2023-07-31T07:23:51;20.80;99.90
16999;DHT22;10211;49.476;11.010;2023-07-31T07:26:19;20.70;99.90
16999;DHT22;10211;49.476;11.010;2023-07-31T07:28:46;20.80;99.90
16999;DHT22;10211;49.476;11.010;2023-07-31T07:31:13;20.90;99.90
16999;DHT22;10211;49.476;11.010;2023-07-31T07:33:39;20.70;99.90
16999;DHT22;10211;49.476;11.010;2023-07-31T07:36:06;20.60;99.90
16999;DHT22;10211;49.476;11.010;2023-07-31T07:38:35;20.60;99.90
16999;DHT22;10211;49.476;11.010;2023-07-31T07:41:02;20.50;99.90
16999;DHT22;10211;49.476;11.010;2023-07-31T07:43:30;20.30;99.90
16999;DHT22;10211;49.476;11.010;2023-07-31T07:45:57;20.40;99.90
16999;DHT22;10211;49.476;11.010;2023-07-31T07:48:23;20.40;99.90
16999;DHT22;10211;49.476;11.010;2023-07-31T07:50:50;20.50;99.90
16999;DHT22;10211;49.476;11.010;2023-07-31T07:53:17;20.50;99.90
16999;DHT22;10211;49.476;11.010;2023-07-31T07:55:44;20.50;99.90
16999;DHT22;10211;49.476;11.010;2023-07-31T07:58:11;20.50;99.90
16999;DHT22;10211;49.476;11.010;2023-07-31T08:00:39;20.60;99.90
16999;DHT22;10211;49.476;11.010;2023-07-31T08:03:06;20.80;99.90
16999;DHT22;10211;49.476;11.010;2023-07-31T08:05:33;21.00;99.90
16999;DHT22;10211;49.476;11.010;2023-07-31T08:08:00;21.30;99.90
16999;DHT22;10211;49.476;11.010;2023-07-31T08:10:27;21.50;99.90
16999;DHT22;10211;49.476;11.010;2023-07-31T08:12:53;21.70;99.90
16999;DHT22;10211;49.476;11.010;2023-07-31T08:15:20;22.00;99.90
16999;DHT22;10211;49.476;11.010;2023-07-31T08:17:48;22.30;99.90
16999;DHT22;10211;49.476;11.010;2023-07-31T08:20:15;22.70;99.60
16999;DHT22;10211;49.476;11.010;2023-07-31T08:22:42;22.90;98.60
16999;DHT22;10211;49.476;11.010;2023-07-31T08:25:09;22.90;99.10
16999;DHT22;10211;49.476;11.010;2023-07-31T08:27:36;22.90;98.10
16999;DHT22;10211;49.476;11.010;2023-07-31T08:30:03;23.40;98.60
16999;DHT22;10211;49.476;11.010;2023-07-31T08:32:30;23.90;97.00
16999;DHT22;10211;49.476;11.010;2023-07-31T08:34:58;24.10;95.90
16999;DHT22;10211;49.476;11.010;2023-07-31T08:37:25;24.30;95.60
16999;DHT22;10211;49.476;11.010;2023-07-31T08:39:51;24.20;94.20
16999;DHT22;10211;49.476;11.010;2023-07-31T08:42:19;23.90;94.40
16999;DHT22;10211;49.476;11.010;2023-07-31T08:44:46;23.80;95.40
16999;DHT22;10211;49.476;11.010;2023-07-31T08:47:14;23.90;95.60
16999;DHT22;10211;49.476;11.010;2023-07-31T08:49:42;23.90;95.00
16999;DHT22;10211;49.476;11.010;2023-07-31T08:52:11;23.80;95.20
16999;DHT22;10211;49.476;11.010;2023-07-31T08:54:38;23.90;95.00
16999;DHT22;10211;49.476;11.010;2023-07-31T08:57:06;23.70;94.90
16999;DHT22;10211;49.476;11.010;2023-07-31T08:59:35;23.70;95.50
16999;DHT22;10211;49.476;11.010;2023-07-31T09:02:06;23.30;94.90
16999;DHT22;10211;49.476;11.010;2023-07-31T09:04:34;23.20;95.90
16999;DHT22;10211;49.476;11.010;2023-07-31T09:07:02;23.30;95.60
16999;DHT22;10211;49.476;11.010;2023-07-31T09:09:31;23.20;94.80
16999;DHT22;10211;49.476;11.010;2023-07-31T09:11:58;23.20;95.50
16999;DHT22;10211;49.476;11.010;2023-07-31T09:14:25;23.20;95.70
16999;DHT22;10211;49.476;11.010;2023-07-31T09:16:53;23.30;95.80
16999;DHT22;10211;49.476;11.010;2023-07-31T09:19:25;23.30;95.60
16999;DHT22;10211;49.476;11.010;2023-07-31T09:21:52;23.30;95.10
16999;DHT22;10211;49.476;11.010;2023-07-31T09:24:25;23.50;94.60
16999;DHT22;10211;49.476;11.010;2023-07-31T09:26:55;23.80;94.70
16999;DHT22;10211;49.476;11.010;2023-07-31T09:29:22;24.00;94.00
16999;DHT22;10211;49.476;11.010;2023-07-31T09:31:51;24.20;94.70
16999;DHT22;10211;49.476;11.010;2023-07-31T09:34:17;24.40;93.50
16999;DHT22;10211;49.476;11.010;2023-07-31T09:36:46;24.60;93.90
16999;DHT22;10211;49.476;11.010;2023-07-31T09:39:14;24.50;92.50
16999;DHT22;10211;49.476;11.010;2023-07-31T09:41:42;24.40;92.80
16999;DHT22;10211;49.476;11.010;2023-07-31T09:44:11;24.50;93.30
16999;DHT22;10211;49.476;11.010;2023-07-31T09:46:38;24.80;93.00
16999;DHT22;10211;49.476;11.010;2023-07-31T09:49:09;25.10;91.90
16999;DHT22;10211;49.476;11.010;2023-07-31T09:51:36;25.40;91.40
16999;DHT22;10211;49.476;11.010;2023-07-31T09:54:09;25.70;90.80
16999;DHT22;10211;49.476;11.010;2023-07-31T09:56:41;25.50;90.40
16999;DHT22;10211;49.476;11.010;2023-07-31T09:59:08;25.90;90.70
16999;DHT22;10211;49.476;11.010;2023-07-31T10:01:39;26.10;89.70
16999;DHT22;10211;49.476;11.010;2023-07-31T10:04:07;26.20;88.80
16999;DHT22;10211;49.476;11.010;2023-07-31T10:06:35;26.60;87.10
16999;DHT22;10211;49.476;11.010;2023-07-31T10:09:02;27.10;86.20
16999;DHT22;10211;49.476;11.010;2023-07-31T10:11:30;27.60;84.80
16999;DHT22;10211;49.476;11.010;2023-07-31T10:14:00;27.20;82.10
16999;DHT22;10211;49.476;11.010;2023-07-31T10:16:28;27.80;81.90
16999;DHT22;10211;49.476;11.010;2023-07-31T10:18:58;29.20;79.30
16999;DHT22;10211;49.476;11.010;2023-07-31T10:21:25;30.00;75.20
16999;DHT22;10211;49.476;11.010;2023-07-31T10:23:54;29.60;75.40
16999;DHT22;10211;49.476;11.010;2023-07-31T10:26:23;28.60;75.30
16999;DHT22;10211;49.476;11.010;2023-07-31T10:28:52;28.30;78.50
16999;DHT22;10211;49.476;11.010;2023-07-31T10:31:21;30.40;75.40
16999;DHT22;10211;49.476;11.010;2023-07-31T10:33:48;33.70;70.30
16999;DHT22;10211;49.476;11.010;2023-07-31T10:36:19;36.40;61.40
16999;DHT22;10211;49.476;11.010;2023-07-31T10:38:48;38.00;57.50
16999;DHT22;10211;49.476;11.010;2023-07-31T10:41:15;37.20;55.50
16999;DHT22;10211;49.476;11.010;2023-07-31T10:43:42;36.50;55.00
16999;DHT22;10211;49.476;11.010;2023-07-31T10:46:12;35.40;56.80
16999;DHT22;10211;49.476;11.010;2023-07-31T10:48:40;35.10;56.10
16999;DHT22;10211;49.476;11.010;2023-07-31T10:51:08;34.40;55.30
16999;DHT22;10211;49.476;11.010;2023-07-31T10:53:38;34.30;56.70
16999;DHT22;10211;49.476;11.010;2023-07-31T10:56:08;35.70;55.70
16999;DHT22;10211;49.476;11.010;2023-07-31T10:58:36;35.70;53.00
16999;DHT22;10211;49.476;11.010;2023-07-31T11:01:04;33.50;55.60
16999;DHT22;10211;49.476;11.010;2023-07-31T11:03:49;32.40;57.90
16999;DHT22;10211;49.476;11.010;2023-07-31T11:06:18;31.40;59.80
16999;DHT22;10211;49.476;11.010;2023-07-31T11:08:47;30.10;62.10
16999;DHT22;10211;49.476;11.010;2023-07-31T11:11:16;28.80;64.00
16999;DHT22;10211;49.476;11.010;2023-07-31T11:13:45;27.90;66.40
16999;DHT22;10211;49.476;11.010;2023-07-31T11:16:14;27.50;67.30
16999;DHT22;10211;49.476;11.010;2023-07-31T11:18:43;27.00;67.50
16999;DHT22;10211;49.476;11.010;2023-07-31T11:21:12;26.60;69.40
16999;DHT22;10211;49.476;11.010;2023-07-31T11:23:40;26.10;70.70
16999;DHT22;10211;49.476;11.010;2023-07-31T11:26:08;25.70;70.90
16999;DHT22;10211;49.476;11.010;2023-07-31T11:28:35;25.20;71.90
16999;DHT22;10211;49.476;11.010;2023-07-31T11:31:04;24.90;73.70
16999;DHT22;10211;49.476;11.010;2023-07-31T11:33:31;24.70;74.90
16999;DHT22;10211;49.476;11.010;2023-07-31T11:35:58;24.50;75.40
16999;DHT22;10211;49.476;11.010;2023-07-31T11:38:26;24.30;75.70
16999;DHT22;10211;49.476;11.010;2023-07-31T11:40:54;24.10;76.20
16999;DHT22;10211;49.476;11.010;2023-07-31T11:43:23;23.90;77.00
16999;DHT22;10211;49.476;11.010;2023-07-31T11:45:53;24.40;76.80
16999;DHT22;10211;49.476;11.010;2023-07-31T11:48:21;24.60;75.30
16999;DHT22;10211;49.476;11.010;2023-07-31T11:50:50;24.50;75.00
16999;DHT22;10211;49.476;11.010;2023-07-31T11:53:23;23.90;76.00
16999;DHT22;10211;49.476;11.010;2023-07-31T11:55:54;24.10;76.80
16999;DHT22;10211;49.476;11.010;2023-07-31T11:58:23;23.90;77.60
16999;DHT22;10211;49.476;11.010;2023-07-31T12:00:55;23.90;78.60
16999;DHT22;10211;49.476;11.010;2023-07-31T12:03:23;23.90;79.20
16999;DHT22;10211;49.476;11.010;2023-07-31T12:05:50;24.20;78.60
16999;DHT22;10211;49.476;11.010;2023-07-31T12:08:17;24.40;78.10
16999;DHT22;10211;49.476;11.010;2023-07-31T12:10:47;24.40;78.30
16999;DHT22;10211;49.476;11.010;2023-07-31T12:13:20;24.70;78.20
16999;DHT22;10211;49.476;11.010;2023-07-31T12:15:53;24.70;78.00
16999;DHT22;10211;49.476;11.010;2023-07-31T12:18:20;24.60;77.80
16999;DHT22;10211;49.476;11.010;2023-07-31T12:20:48;24.80;78.20
16999;DHT22;10211;49.476;11.010;2023-07-31T12:23:17;24.90;78.80
16999;DHT22;10211;49.476;11.010;2023-07-31T12:25:44;24.80;77.00
16999;DHT22;10211;49.476;11.010;2023-07-31T12:28:11;24.40;76.20
16999;DHT22;10211;49.476;11.010;2023-07-31T12:30:39;24.10;76.90
16999;DHT22;10211;49.476;11.010;2023-07-31T12:33:18;23.90;78.20
16999;DHT22;10211;49.476;11.010;2023-07-31T12:35:46;23.90;78.60
16999;DHT22;10211;49.476;11.010;2023-07-31T12:38:13;24.20;78.00
16999;DHT22;10211;49.476;11.010;2023-07-31T12:40:45;24.30;77.90
16999;DHT22;10211;49.476;11.010;2023-07-31T12:43:13;24.30;79.30
16999;DHT22;10211;49.476;11.010;2023-07-31T12:45:40;24.20;79.00
16999;DHT22;10211;49.476;11.010;2023-07-31T12:48:06;24.20;79.20
16999;DHT22;10211;49.476;11.010;2023-07-31T12:50:38;24.40;78.20
16999;DHT22;10211;49.476;11.010;2023-07-31T12:53:05;24.60;78.70
16999;DHT22;10211;49.476;11.010;2023-07-31T12:55:40;24.80;78.40
16999;DHT22;10211;49.476;11.010;2023-07-31T12:58:07;25.10;77.80
16999;DHT22;10211;49.476;11.010;2023-07-31T13:00:38;25.40;77.50
16999;DHT22;10211;49.476;11.010;2023-07-31T13:03:05;25.30;75.50
16999;DHT22;10211;49.476;11.010;2023-07-31T13:05:32;25.10;75.80
16999;DHT22;10211;49.476;11.010;2023-07-31T13:08:00;24.90;76.80
16999;DHT22;10211;49.476;11.010;2023-07-31T13:10:27;24.70;77.00
16999;DHT22;10211;49.476;11.010;2023-07-31T13:12:55;24.70;77.80
16999;DHT22;10211;49.476;11.010;2023-07-31T13:15:22;24.90;77.30
16999;DHT22;10211;49.476;11.010;2023-07-31T13:17:49;24.70;77.80
16999;DHT22;10211;49.476;11.010;2023-07-31T13:20:16;25.10;77.80
16999;DHT22;10211;49.476;11.010;2023-07-31T13:22:42;25.50;76.80
16999;DHT22;10211;49.476;11.010;2023-07-31T13:25:11;25.80;74.90
16999;DHT22;10211;49.476;11.010;2023-07-31T13:27:37;26.30;75.30
16999;DHT22;10211;49.476;11.010;2023-07-31T13:30:05;26.60;74.90
16999;DHT22;10211;49.476;11.010;2023-07-31T13:32:32;27.40;74.30
16999;DHT22;10211;49.476;11.010;2023-07-31T13:35:04;27.80;73.80
16999;DHT22;10211;49.476;11.010;2023-07-31T13:37:31;28.10;73.00
16999;DHT22;10211;49.476;11.010;2023-07-31T13:39:58;28.10;71.70
16999;DHT22;10211;49.476;11.010;2023-07-31T13:42:26;27.80;71.50
16999;DHT22;10211;49.476;11.010;2023-07-31T13:44:54;27.70;71.70
16999;DHT22;10211;49.476;11.010;2023-07-31T13:47:21;28.00;73.00
16999;DHT22;10211;49.476;11.010;2023-07-31T13:49:48;28.20;72.00
16999;DHT22;10211;49.476;11.010;2023-07-31T13:52:15;27.60;69.30
16999;DHT22;10211;49.476;11.010;2023-07-31T13:54:41;27.10;70.90
16999;DHT22;10211;49.476;11.010;2023-07-31T13:57:09;26.90;72.80
16999;DHT22;10211;49.476;11.010;2023-07-31T13:59:37;27.00;72.10
16999;DHT22;10211;49.476;11.010;2023-07-31T14:02:04;27.00;72.30
16999;DHT22;10211;49.476;11.010;2023-07-31T14:04:31;26.90;72.10
16999;DHT22;10211;49.476;11.010;2023-07-31T14:06:59;26.70;71.50
16999;DHT22;10211;49.476;11.010;2023-07-31T14:09:25;26.50;72.70
16999;DHT22;10211;49.476;11.010;2023-07-31T14:11:53;26.40;73.10
16999;DHT22;10211;49.476;11.010;2023-07-31T14:14:20;26.20;72.10
16999;DHT22;10211;49.476;11.010;2023-07-31T14:16:48;26.00;73.50
16999;DHT22;10211;49.476;11.010;2023-07-31T14:19:15;25.90;73.60
16999;DHT22;10211;49.476;11.010;2023-07-31T14:21:43;25.90;73.60
16999;DHT22;10211;49.476;11.010;2023-07-31T14:24:10;26.00;72.10
16999;DHT22;10211;49.476;11.010;2023-07-31T14:26:37;26.00;73.10
16999;DHT22;10211;49.476;11.010;2023-07-31T14:29:03;26.00;73.00
16999;DHT22;10211;49.476;11.010;2023-07-31T14:31:30;25.80;73.70
16999;DHT22;10211;49.476;11.010;2023-07-31T14:33:58;25.40;73.70
16999;DHT22;10211;49.476;11.010;2023-07-31T14:36:25;25.30;75.30
16999;DHT22;10211;49.476;11.010;2023-07-31T14:38:51;25.40;75.90
16999;DHT22;10211;49.476;11.010;2023-07-31T14:41:18;25.30;75.20
16999;DHT22;10211;49.476;11.010;2023-07-31T14:43:45;25.20;74.80
16999;DHT22;10211;49.476;11.010;2023-07-31T14:46:12;25.00;75.40
16999;DHT22;10211;49.476;11.010;2023-07-31T14:48:40;24.70;75.30
16999;DHT22;10211;49.476;11.010;2023-07-31T14:51:08;24.60;76.30
16999;DHT22;10211;49.476;11.010;2023-07-31T14:53:34;24.50;78.10
16999;DHT22;10211;49.476;11.010;2023-07-31T14:56:01;24.30;76.90
16999;DHT22;10211;49.476;11.010;2023-07-31T14:58:28;24.00;77.00
16999;DHT22;10211;49.476;11.010;2023-07-31T15:00:56;23.80;78.00
16999;DHT22;10211;49.476;11.010;2023-07-31T15:03:23;23.70;78.90
16999;DHT22;10211;49.476;11.010;2023-07-31T15:05:51;23.60;80.00
16999;DHT22;10211;49.476;11.010;2023-07-31T15:08:19;23.50;80.30
16999;DHT22;10211;49.476;11.010;2023-07-31T15:10:46;23.40;80.80
16999;DHT22;10211;49.476;11.010;2023-07-31T15:13:13;23.30;81.50
16999;DHT22;10211;49.476;11.010;2023-07-31T15:15:40;23.30;80.60
16999;DHT22;10211;49.476;11.010;2023-07-31T15:18:06;23.20;81.50